Wyoming, Canada
Current Conditions -  °F | °C
As of 3:00 AM on Saturday 25 Oct 2014 (Local Time) from CYZR Reporting Station
Clear Clear  
Wind Chill: 45°   Ceiling: Unl
Heat Index: 48°   Visibility: NA
Dew Point: 45°   Wind: 7mph
Humidity: 87%   Direction: 200°SSW
Pressure: 29.89"   Gusts: NA
Location:  42.95°N, 82.12°W
Report Text: CYZR 250700Z AUTO 20006KT CLR 09/07 A2989 RMK WX MISG VIS MISG PCPN MISG SLP123
Loading
Personal Weather Stations






























Interactive Weather Map
Tropical Storm Tracking
New forecast layout! Learn more

10-Day Weather Forecast

Advertisements
Track Severe Weather on mobile